Time;durP1;ratioP1;P1;durP2;ratioP2;P2;SDS_P1;SDS_P2;PMS_P1;PMS_P2;Temp;Humidity;BMP_temperature;BMP_pressure;BME280_temperature;BME280_humidity;BME280_pressure;Samples;Min_cycle;Max_cycle;Signal;HPM_P1;HPM_P2
2023/10/23 00:01:50;;;;;;;3.47;2.20;;;;;;;;;;5044583;28;20461;-72
2023/10/23 00:04:19;;;;;;;2.50;2.30;;;;;;;;;;5042758;28;20045;-71
2023/10/23 00:06:47;;;;;;;2.30;2.20;;;;;;;;;;5041980;28;20529;-71
2023/10/23 00:09:16;;;;;;;2.88;2.47;;;;;;;;;;5040481;28;20041;-71
2023/10/23 00:11:44;;;;;;;2.95;2.75;;;;;;;;;;5040873;28;20045;-71
2023/10/23 00:14:14;;;;;;;2.38;2.25;;;;;;;;;;5042458;28;20099;-71
2023/10/23 00:16:42;;;;;;;2.15;2.05;;;;;;;;;;5043471;28;20126;-71
2023/10/23 00:19:11;;;;;;;2.30;2.20;;;;;;;;;;5043291;28;20068;-71
2023/10/23 00:21:39;;;;;;;2.38;2.15;;;;;;;;;;5040975;28;20130;-67
2023/10/23 00:24:08;;;;;;;2.60;2.40;;;;;;;;;;5042825;28;20052;-71
2023/10/23 00:26:36;;;;;;;2.20;2.10;;;;;;;;;;5041255;28;21912;-72
2023/10/23 00:29:04;;;;;;;2.35;2.25;;;;;;;;;;5041148;28;20045;-72
2023/10/23 00:31:34;;;;;;;2.20;2.10;;;;;;;;;;5041410;28;20453;-69
2023/10/23 00:34:03;;;;;;;2.30;2.20;;;;;;;;;;5042234;28;20041;-70
2023/10/23 00:36:31;;;;;;;2.58;2.38;;;;;;;;;;5042966;28;20053;-71
2023/10/23 00:38:59;;;;;;;2.10;2.00;;;;;;;;;;5039504;28;20078;-71
2023/10/23 00:41:28;;;;;;;2.22;2.10;;;;;;;;;;5042655;28;20053;-72
2023/10/23 00:43:56;;;;;;;2.67;2.10;;;;;;;;;;5039710;28;20095;-72
2023/10/23 00:46:25;;;;;;;2.58;2.38;;;;;;;;;;5043714;28;20095;-71
2023/10/23 00:48:55;;;;;;;2.08;1.98;;;;;;;;;;5043332;28;20130;-71
2023/10/23 00:51:24;;;;;;;2.30;2.20;;;;;;;;;;5041277;28;20072;-71
2023/10/23 00:53:52;;;;;;;2.40;2.30;;;;;;;;;;5043034;28;20052;-71
2023/10/23 00:56:21;;;;;;;2.13;2.03;;;;;;;;;;5037687;28;20374;-71
2023/10/23 00:58:49;;;;;;;2.40;2.00;;;;;;;;;;5041461;28;20076;-71
2023/10/23 01:01:18;;;;;;;2.42;2.22;;;;;;;;;;5041659;28;20828;-72
2023/10/23 01:03:46;;;;;;;2.30;2.20;;;;;;;;;;5039556;28;20087;-71
2023/10/23 01:06:16;;;;;;;2.55;2.35;;;;;;;;;;5039028;28;20063;-70
2023/10/23 01:08:45;;;;;;;2.33;2.22;;;;;;;;;;5037449;28;20081;-71
2023/10/23 01:11:13;;;;;;;2.13;2.03;;;;;;;;;;5039305;28;20079;-71
2023/10/23 01:13:42;;;;;;;2.30;2.17;;;;;;;;;;5041971;28;20076;-71
2023/10/23 01:16:10;;;;;;;2.47;2.28;;;;;;;;;;5040276;28;20045;-72
2023/10/23 01:18:39;;;;;;;2.22;2.13;;;;;;;;;;5040982;28;20067;-71
2023/10/23 01:21:07;;;;;;;2.40;2.30;;;;;;;;;;5041076;28;20049;-70
2023/10/23 01:23:38;;;;;;;2.20;2.10;;;;;;;;;;5042939;28;20084;-72
2023/10/23 01:26:07;;;;;;;2.38;2.20;;;;;;;;;;5039286;28;20073;-72
2023/10/23 01:28:36;;;;;;;2.20;2.10;;;;;;;;;;5043199;28;20045;-72
2023/10/23 01:31:04;;;;;;;2.13;2.03;;;;;;;;;;5039929;28;20652;-71
2023/10/23 01:33:32;;;;;;;5.28;2.45;;;;;;;;;;5040140;28;20041;-71
2023/10/23 01:36:01;;;;;;;2.42;2.10;;;;;;;;;;5044507;28;20506;-71
2023/10/23 01:38:29;;;;;;;2.60;2.40;;;;;;;;;;5045055;28;20045;-71
2023/10/23 01:40:58;;;;;;;2.20;2.10;;;;;;;;;;5045863;28;20398;-71
2023/10/23 01:43:27;;;;;;;2.17;2.08;;;;;;;;;;5047223;28;20048;-71
2023/10/23 01:45:56;;;;;;;2.30;2.20;;;;;;;;;;5045431;28;20456;-71
2023/10/23 01:48:24;;;;;;;2.15;2.05;;;;;;;;;;5042349;28;20148;-71
2023/10/23 01:50:53;;;;;;;2.13;2.03;;;;;;;;;;5046177;28;20049;-71
2023/10/23 01:53:21;;;;;;;2.28;2.15;;;;;;;;;;5043099;28;20040;-70
2023/10/23 01:55:49;;;;;;;2.33;2.20;;;;;;;;;;5044607;28;20041;-72
2023/10/23 01:58:18;;;;;;;2.30;2.20;;;;;;;;;;5044712;28;20486;-71
2023/10/23 02:00:48;;;;;;;2.10;2.00;;;;;;;;;;5045598;28;20068;-72
2023/10/23 02:03:16;;;;;;;2.20;2.10;;;;;;;;;;5045066;28;20156;-70
2023/10/23 02:05:46;;;;;;;2.63;2.53;;;;;;;;;;5042085;28;20498;-72
2023/10/23 02:08:16;;;;;;;2.13;2.03;;;;;;;;;;5043937;28;20064;-69
2023/10/23 02:10:44;;;;;;;2.10;2.00;;;;;;;;;;5043660;28;20154;-71
2023/10/23 02:13:13;;;;;;;2.40;2.20;;;;;;;;;;5045628;28;20045;-72
2023/10/23 02:15:41;;;;;;;2.25;2.15;;;;;;;;;;5044976;28;20080;-71
2023/10/23 02:18:11;;;;;;;2.42;2.28;;;;;;;;;;5045353;28;20054;-72
2023/10/23 02:20:39;;;;;;;2.45;2.25;;;;;;;;;;5045168;28;20037;-71
2023/10/23 02:23:08;;;;;;;2.50;1.95;;;;;;;;;;5045947;28;20108;-71
2023/10/23 02:25:36;;;;;;;2.80;2.60;;;;;;;;;;5042689;28;20130;-71
2023/10/23 02:28:05;;;;;;;2.40;2.20;;;;;;;;;;5044175;28;20045;-71
2023/10/23 02:30:33;;;;;;;2.22;2.13;;;;;;;;;;5045102;28;20067;-68
2023/10/23 02:33:02;;;;;;;2.40;2.22;;;;;;;;;;5046955;28;20049;-71
2023/10/23 02:35:34;;;;;;;2.10;2.00;;;;;;;;;;5045107;28;20128;-71
2023/10/23 02:38:03;;;;;;;2.30;2.20;;;;;;;;;;5042288;28;20498;-71
2023/10/23 02:40:32;;;;;;;5.18;2.30;;;;;;;;;;5042614;28;20482;-71
2023/10/23 02:43:00;;;;;;;2.10;2.00;;;;;;;;;;5044491;28;20583;-71
2023/10/23 02:45:29;;;;;;;2.35;2.20;;;;;;;;;;5044471;28;20044;-71
2023/10/23 02:47:57;;;;;;;2.50;2.35;;;;;;;;;;5045271;28;20068;-72
2023/10/23 02:50:25;;;;;;;2.45;2.35;;;;;;;;;;5044302;28;20049;-68
2023/10/23 02:52:55;;;;;;;1.95;1.85;;;;;;;;;;5041890;28;20055;-72
2023/10/23 02:55:26;;;;;;;2.20;2.10;;;;;;;;;;5042621;28;20041;-71
2023/10/23 02:57:54;;;;;;;2.30;2.20;;;;;;;;;;5042173;28;20461;-71
2023/10/23 03:00:23;;;;;;;2.72;2.42;;;;;;;;;;5041672;28;20560;-70
2023/10/23 03:02:52;;;;;;;2.08;1.98;;;;;;;;;;5042035;28;20114;-71
2023/10/23 03:05:20;;;;;;;2.70;2.50;;;;;;;;;;5040788;28;20038;-71
2023/10/23 03:07:50;;;;;;;3.30;2.53;;;;;;;;;;5043126;28;20122;-72
2023/10/23 03:10:20;;;;;;;2.28;2.17;;;;;;;;;;5042719;28;20063;-72
2023/10/23 03:12:49;;;;;;;2.30;2.20;;;;;;;;;;5044242;28;20058;-72
2023/10/23 03:15:17;;;;;;;2.53;2.38;;;;;;;;;;5043446;28;20047;-71
2023/10/23 03:17:46;;;;;;;2.10;2.00;;;;;;;;;;5043722;28;20489;-72
2023/10/23 03:20:14;;;;;;;2.85;2.50;;;;;;;;;;5045591;28;20488;-71
2023/10/23 03:22:43;;;;;;;2.47;2.38;;;;;;;;;;5042235;28;20122;-70
2023/10/23 03:25:12;;;;;;;2.30;2.20;;;;;;;;;;5041849;28;20061;-71
2023/10/23 03:27:41;;;;;;;2.20;2.10;;;;;;;;;;5041491;28;20051;-71
2023/10/23 03:30:10;;;;;;;2.40;2.30;;;;;;;;;;5041490;28;20126;-71
2023/10/23 03:32:39;;;;;;;2.20;2.10;;;;;;;;;;5044092;28;20693;-70
2023/10/23 03:35:07;;;;;;;2.30;2.20;;;;;;;;;;5042665;28;20218;-71
2023/10/23 03:37:35;;;;;;;2.30;2.20;;;;;;;;;;5043717;28;20080;-72
2023/10/23 03:40:04;;;;;;;2.83;2.42;;;;;;;;;;5041651;28;20111;-71
2023/10/23 03:42:32;;;;;;;2.50;2.38;;;;;;;;;;5039607;28;20077;-72
2023/10/23 03:45:02;;;;;;;2.38;2.28;;;;;;;;;;5042537;28;20041;-72
2023/10/23 03:47:31;;;;;;;2.55;2.35;;;;;;;;;;5039951;28;20138;-70
2023/10/23 03:49:59;;;;;;;2.38;2.28;;;;;;;;;;5040603;28;20040;-71
2023/10/23 03:52:28;;;;;;;2.40;2.30;;;;;;;;;;5043976;28;20045;-71
2023/10/23 03:54:56;;;;;;;2.20;2.10;;;;;;;;;;5042113;28;20081;-69
2023/10/23 03:57:24;;;;;;;2.38;2.28;;;;;;;;;;5041135;28;20053;-71
2023/10/23 03:59:53;;;;;;;2.20;2.10;;;;;;;;;;5040914;28;20053;-71
2023/10/23 04:02:22;;;;;;;2.40;2.30;;;;;;;;;;5040650;28;20076;-72
2023/10/23 04:04:51;;;;;;;2.33;2.22;;;;;;;;;;5036644;28;20045;-71
2023/10/23 04:07:19;;;;;;;2.22;2.13;;;;;;;;;;5043023;28;20096;-71
2023/10/23 04:09:48;;;;;;;1.98;1.88;;;;;;;;;;5042657;28;20482;-71
2023/10/23 04:12:16;;;;;;;2.35;2.25;;;;;;;;;;5041150;28;20470;-71
2023/10/23 04:14:46;;;;;;;2.20;2.10;;;;;;;;;;5043132;28;20543;-72
2023/10/23 04:17:15;;;;;;;2.20;2.10;;;;;;;;;;5040724;28;20090;-71
2023/10/23 04:19:48;;;;;;;2.50;2.40;;;;;;;;;;5043448;28;20041;-72
2023/10/23 04:22:16;;;;;;;2.40;2.30;;;;;;;;;;5042288;28;20049;-71
2023/10/23 04:24:45;;;;;;;3.42;2.30;;;;;;;;;;5044530;28;20049;-71
2023/10/23 04:27:13;;;;;;;2.20;2.08;;;;;;;;;;5041610;28;20506;-71
2023/10/23 04:29:42;;;;;;;2.40;2.20;;;;;;;;;;5040329;28;20126;-70
2023/10/23 04:32:10;;;;;;;2.20;2.10;;;;;;;;;;5037690;28;20044;-69
2023/10/23 04:34:38;;;;;;;2.35;2.25;;;;;;;;;;5036587;28;20445;-70
2023/10/23 04:37:08;;;;;;;2.25;2.15;;;;;;;;;;5038818;28;20053;-71
2023/10/23 04:39:36;;;;;;;2.30;2.20;;;;;;;;;;5039918;28;20080;-71
2023/10/23 04:42:05;;;;;;;2.45;2.33;;;;;;;;;;5039783;28;20091;-71
2023/10/23 04:44:34;;;;;;;2.20;2.10;;;;;;;;;;5042856;28;20474;-72
2023/10/23 04:47:03;;;;;;;2.03;1.92;;;;;;;;;;5040350;28;20053;-71
2023/10/23 04:49:31;;;;;;;2.20;2.10;;;;;;;;;;5041207;28;20041;-71
2023/10/23 04:51:59;;;;;;;2.53;2.30;;;;;;;;;;5041859;28;20084;-71
2023/10/23 04:54:29;;;;;;;2.20;2.10;;;;;;;;;;5034665;28;20998;-70
2023/10/23 04:56:58;;;;;;;2.60;2.40;;;;;;;;;;5038736;28;20343;-72
2023/10/23 04:59:26;;;;;;;2.20;2.10;;;;;;;;;;5041539;28;20108;-71
2023/10/23 05:01:54;;;;;;;2.22;2.13;;;;;;;;;;5041296;28;20080;-72
2023/10/23 05:04:23;;;;;;;2.55;2.35;;;;;;;;;;5040102;28;20103;-70
2023/10/23 05:06:52;;;;;;;2.20;2.10;;;;;;;;;;5040163;28;20048;-70
2023/10/23 05:09:21;;;;;;;2.55;2.35;;;;;;;;;;5035649;28;20099;-70
2023/10/23 05:11:51;;;;;;;2.40;2.30;;;;;;;;;;5042101;28;20483;-70
2023/10/23 05:14:19;;;;;;;2.22;2.13;;;;;;;;;;5042088;28;20064;-71
2023/10/23 05:16:47;;;;;;;2.75;2.30;;;;;;;;;;5043926;28;20102;-71
2023/10/23 05:19:16;;;;;;;2.50;2.35;;;;;;;;;;5044601;28;20045;-72
2023/10/23 05:21:44;;;;;;;3.90;2.50;;;;;;;;;;5044954;28;20053;-70
2023/10/23 05:24:13;;;;;;;2.50;2.40;;;;;;;;;;5041559;28;20052;-73
2023/10/23 05:26:41;;;;;;;2.15;2.05;;;;;;;;;;5043335;28;20986;-73
2023/10/23 05:29:11;;;;;;;2.58;2.45;;;;;;;;;;5041885;28;20501;-69
2023/10/23 05:31:39;;;;;;;2.50;2.30;;;;;;;;;;5046523;28;20529;-70
2023/10/23 05:34:08;;;;;;;2.25;2.15;;;;;;;;;;5047070;28;20464;-70
2023/10/23 05:36:36;;;;;;;2.63;2.42;;;;;;;;;;5044201;28;20532;-70
2023/10/23 05:39:06;;;;;;;2.53;2.42;;;;;;;;;;5043853;28;20136;-70
2023/10/23 05:41:34;;;;;;;2.30;2.20;;;;;;;;;;5046910;28;20045;-70
2023/10/23 05:44:02;;;;;;;2.50;2.30;;;;;;;;;;5046193;28;21362;-69
2023/10/23 05:46:32;;;;;;;2.40;2.30;;;;;;;;;;5044490;28;20506;-69
2023/10/23 05:49:01;;;;;;;2.33;2.22;;;;;;;;;;5045069;28;20555;-70
2023/10/23 05:51:29;;;;;;;2.20;2.10;;;;;;;;;;5044965;28;20052;-69
2023/10/23 05:53:58;;;;;;;2.38;2.25;;;;;;;;;;5046069;28;20045;-69
2023/10/23 05:56:26;;;;;;;2.65;2.45;;;;;;;;;;5042639;28;20064;-69
2023/10/23 05:58:54;;;;;;;2.67;2.47;;;;;;;;;;5045503;28;20045;-70
2023/10/23 06:01:23;;;;;;;2.25;2.15;;;;;;;;;;5046102;28;20041;-70
2023/10/23 06:03:53;;;;;;;2.45;2.30;;;;;;;;;;5043611;28;20044;-70
2023/10/23 06:06:22;;;;;;;2.20;2.10;;;;;;;;;;5043603;28;20041;-70
2023/10/23 06:08:50;;;;;;;2.53;2.40;;;;;;;;;;5044726;28;20045;-67
2023/10/23 06:11:19;;;;;;;2.42;2.22;;;;;;;;;;5045925;28;20102;-70
2023/10/23 06:13:47;;;;;;;2.42;2.30;;;;;;;;;;5045494;28;20122;-71
2023/10/23 06:16:15;;;;;;;2.80;2.40;;;;;;;;;;5045101;28;20049;-70
2023/10/23 06:18:44;;;;;;;2.55;2.35;;;;;;;;;;5041617;28;20057;-69
2023/10/23 06:21:14;;;;;;;2.85;2.65;;;;;;;;;;5041624;28;20041;-70
2023/10/23 06:23:42;;;;;;;2.90;2.70;;;;;;;;;;5045485;28;20053;-70
2023/10/23 06:26:11;;;;;;;2.70;2.50;;;;;;;;;;5042650;28;20049;-69
2023/10/23 06:28:39;;;;;;;6.20;2.50;;;;;;;;;;5046680;28;20490;-70
2023/10/23 06:31:08;;;;;;;3.30;2.35;;;;;;;;;;5046147;28;20103;-69
2023/10/23 06:33:38;;;;;;;3.45;2.60;;;;;;;;;;5046119;28;20045;-70
2023/10/23 06:36:09;;;;;;;2.55;2.38;;;;;;;;;;5045276;28;20053;-70
2023/10/23 06:38:39;;;;;;;4.10;2.80;;;;;;;;;;5041962;28;20056;-69
2023/10/23 06:41:08;;;;;;;3.50;2.17;;;;;;;;;;5041425;28;20049;-70
2023/10/23 06:43:37;;;;;;;2.65;2.45;;;;;;;;;;5043621;28;20494;-70
2023/10/23 06:46:06;;;;;;;2.30;2.20;;;;;;;;;;5043615;28;20040;-66
2023/10/23 06:48:34;;;;;;;5.10;2.35;;;;;;;;;;5041869;28;20574;-70
2023/10/23 06:51:03;;;;;;;2.40;2.30;;;;;;;;;;5044467;28;20064;-69
2023/10/23 06:53:32;;;;;;;2.58;2.40;;;;;;;;;;5045827;28;20276;-70
2023/10/23 06:56:02;;;;;;;4.07;2.58;;;;;;;;;;5043789;28;20045;-70
2023/10/23 06:58:31;;;;;;;2.75;2.40;;;;;;;;;;5045353;28;20049;-69
2023/10/23 07:01:06;;;;;;;3.03;2.50;;;;;;;;;;5045057;28;20045;-69
2023/10/23 07:03:34;;;;;;;2.33;2.22;;;;;;;;;;5042594;28;20057;-69
2023/10/23 07:06:06;;;;;;;2.55;2.40;;;;;;;;;;5043954;28;20071;-70
2023/10/23 07:08:36;;;;;;;4.25;2.35;;;;;;;;;;5041730;28;20057;-69
2023/10/23 07:11:12;;;;;;;2.20;2.10;;;;;;;;;;5038992;28;20041;-69
2023/10/23 07:13:40;;;;;;;2.80;2.60;;;;;;;;;;5044581;28;20410;-70
2023/10/23 07:16:09;;;;;;;2.10;2.00;;;;;;;;;;5045686;28;20390;-69
2023/10/23 07:18:37;;;;;;;2.55;2.35;;;;;;;;;;5040195;28;20045;-70
2023/10/23 07:21:06;;;;;;;2.42;2.22;;;;;;;;;;5038431;28;20045;-70
2023/10/23 07:23:34;;;;;;;2.22;2.13;;;;;;;;;;5040696;28;20256;-69
2023/10/23 07:26:03;;;;;;;2.60;2.40;;;;;;;;;;5042184;28;20045;-69
2023/10/23 07:28:33;;;;;;;2.17;2.08;;;;;;;;;;5042523;28;20052;-69
2023/10/23 07:31:03;;;;;;;2.30;2.20;;;;;;;;;;5042068;28;20413;-69
2023/10/23 07:33:32;;;;;;;2.63;2.42;;;;;;;;;;5042816;28;20634;-69
2023/10/23 07:36:01;;;;;;;2.10;2.00;;;;;;;;;;5044569;28;20045;-68
2023/10/23 07:38:29;;;;;;;2.70;2.30;;;;;;;;;;5041826;28;20096;-66
2023/10/23 07:40:58;;;;;;;2.67;2.50;;;;;;;;;;5044039;28;20057;-66
2023/10/23 07:43:27;;;;;;;2.25;2.15;;;;;;;;;;5040298;28;20583;-67
2023/10/23 07:45:57;;;;;;;2.58;2.38;;;;;;;;;;5041047;28;20410;-68
2023/10/23 07:48:29;;;;;;;2.42;2.33;;;;;;;;;;5039303;28;20041;-67
2023/10/23 07:50:58;;;;;;;2.58;2.38;;;;;;;;;;5043566;28;20098;-68
2023/10/23 07:53:27;;;;;;;2.80;2.60;;;;;;;;;;5044906;28;20044;-67
2023/10/23 07:55:56;;;;;;;2.42;2.33;;;;;;;;;;5041400;28;20048;-67
2023/10/23 07:58:24;;;;;;;2.35;2.25;;;;;;;;;;5040375;28;20449;-68
2023/10/23 08:01:02;;;;;;;2.20;2.10;;;;;;;;;;5040989;28;20056;-68
2023/10/23 08:03:33;;;;;;;2.25;2.15;;;;;;;;;;5041784;28;20045;-68
2023/10/23 08:06:03;;;;;;;2.60;2.50;;;;;;;;;;5042246;28;20049;-69
2023/10/23 08:08:33;;;;;;;2.45;2.25;;;;;;;;;;5040920;28;20135;-71
2023/10/23 08:11:04;;;;;;;2.10;2.00;;;;;;;;;;5041342;28;20131;-67
2023/10/23 08:13:33;;;;;;;2.53;2.40;;;;;;;;;;5041364;28;20061;-69
2023/10/23 08:16:03;;;;;;;3.30;1.98;;;;;;;;;;5044844;28;20518;-69
2023/10/23 08:18:35;;;;;;;2.00;1.90;;;;;;;;;;5044153;28;20542;-70
2023/10/23 08:21:12;;;;;;;2.80;2.30;;;;;;;;;;5042055;28;20143;-70
2023/10/23 08:23:41;;;;;;;2.30;2.20;;;;;;;;;;5044091;28;20045;-70
2023/10/23 08:26:09;;;;;;;2.70;2.50;;;;;;;;;;5043380;28;20052;-70
2023/10/23 08:28:38;;;;;;;2.33;2.22;;;;;;;;;;5044511;28;20061;-71
2023/10/23 08:31:26;;;;;;;2.33;2.22;;;;;;;;;;5040447;28;20047;-69
2023/10/23 08:34:08;;;;;;;2.30;2.10;;;;;;;;;;5044091;28;20053;-70
2023/10/23 08:36:37;;;;;;;2.15;2.05;;;;;;;;;;5043533;28;20053;-69
2023/10/23 08:39:06;;;;;;;2.35;2.25;;;;;;;;;;5042783;28;20044;-69
2023/10/23 08:41:36;;;;;;;2.30;2.20;;;;;;;;;;5040701;28;20052;-69
2023/10/23 08:44:08;;;;;;;2.25;2.15;;;;;;;;;;5041619;28;20543;-70
2023/10/23 08:46:37;;;;;;;2.20;2.10;;;;;;;;;;5041992;28;20056;-70
2023/10/23 08:49:08;;;;;;;2.47;2.28;;;;;;;;;;5040726;28;20479;-71
2023/10/23 08:51:37;;;;;;;2.10;2.00;;;;;;;;;;5043757;28;20069;-71
2023/10/23 08:54:07;;;;;;;2.30;2.20;;;;;;;;;;5041318;28;20625;-70
2023/10/23 08:56:40;;;;;;;2.10;2.00;;;;;;;;;;5041838;28;20056;-70
2023/10/23 08:59:10;;;;;;;2.35;2.25;;;;;;;;;;5043319;28;20056;-70
2023/10/23 09:01:38;;;;;;;2.10;2.00;;;;;;;;;;5044757;28;20561;-70
2023/10/23 09:04:10;;;;;;;2.10;2.00;;;;;;;;;;5044414;28;20658;-69
2023/10/23 09:06:42;;;;;;;2.20;2.00;;;;;;;;;;5041672;28;20053;-70
2023/10/23 09:09:11;;;;;;;2.13;2.03;;;;;;;;;;5041707;28;20045;-70
2023/10/23 09:11:41;;;;;;;2.10;1.90;;;;;;;;;;5037293;28;20054;-71
2023/10/23 09:14:09;;;;;;;2.00;1.90;;;;;;;;;;5037974;28;20076;-68
2023/10/23 09:16:38;;;;;;;2.20;2.10;;;;;;;;;;5043954;28;20740;-69
2023/10/23 09:19:07;;;;;;;2.15;2.05;;;;;;;;;;5040898;28;20041;-71
2023/10/23 09:21:36;;;;;;;1.95;1.85;;;;;;;;;;5044156;28;20092;-69
2023/10/23 09:24:06;;;;;;;1.85;1.75;;;;;;;;;;5038569;28;20045;-69
2023/10/23 09:26:34;;;;;;;1.95;1.85;;;;;;;;;;5039958;28;20041;-70
2023/10/23 09:29:03;;;;;;;2.67;2.00;;;;;;;;;;5042180;28;20049;-67
2023/10/23 09:31:32;;;;;;;2.00;1.90;;;;;;;;;;5041867;28;20430;-71
2023/10/23 09:34:02;;;;;;;2.00;1.90;;;;;;;;;;5040962;28;20037;-70
2023/10/23 09:36:31;;;;;;;1.90;1.80;;;;;;;;;;5039923;28;20108;-69
2023/10/23 09:39:02;;;;;;;1.90;1.80;;;;;;;;;;5042929;28;20530;-68
2023/10/23 09:41:32;;;;;;;1.70;1.60;;;;;;;;;;5042301;28;20053;-68
2023/10/23 09:44:02;;;;;;;1.90;1.80;;;;;;;;;;5042272;28;20057;-69
2023/10/23 09:46:30;;;;;;;2.55;1.70;;;;;;;;;;5039675;28;20087;-69
2023/10/23 09:49:03;;;;;;;2.03;1.92;;;;;;;;;;5042574;28;20041;-69
2023/10/23 09:51:37;;;;;;;2.03;1.92;;;;;;;;;;5040586;28;20068;-68
2023/10/23 09:54:15;;;;;;;1.55;1.50;;;;;;;;;;5041802;28;20056;-67
2023/10/23 09:56:48;;;;;;;1.63;1.52;;;;;;;;;;5042232;28;20040;-68
2023/10/23 09:59:18;;;;;;;1.67;1.58;;;;;;;;;;5045062;28;20033;-68
2023/10/23 10:01:48;;;;;;;1.80;1.70;;;;;;;;;;5047011;28;20041;-68
2023/10/23 10:04:21;;;;;;;1.80;1.70;;;;;;;;;;5045455;28;20044;-68
2023/10/23 10:06:54;;;;;;;1.65;1.55;;;;;;;;;;5046982;28;20557;-68
2023/10/23 10:09:25;;;;;;;1.55;1.52;;;;;;;;;;5047199;28;20045;-68
2023/10/23 10:11:55;;;;;;;1.70;1.60;;;;;;;;;;5042724;28;20053;-67
2023/10/23 10:14:25;;;;;;;1.90;1.80;;;;;;;;;;5045724;28;20041;-69
2023/10/23 10:16:56;;;;;;;1.80;1.70;;;;;;;;;;5040582;28;20048;-70
2023/10/23 10:19:26;;;;;;;1.80;1.70;;;;;;;;;;5046022;28;20078;-70
2023/10/23 10:22:00;;;;;;;2.10;1.73;;;;;;;;;;5045128;28;20562;-68
2023/10/23 10:24:31;;;;;;;2.03;1.92;;;;;;;;;;5046580;28;20490;-70
2023/10/23 10:27:03;;;;;;;2.00;1.90;;;;;;;;;;5047284;28;20052;-67
2023/10/23 10:29:32;;;;;;;1.98;1.88;;;;;;;;;;5043989;28;20264;-69
2023/10/23 10:32:05;;;;;;;1.73;1.63;;;;;;;;;;5043524;28;20136;-67
2023/10/23 10:34:45;;;;;;;1.85;1.75;;;;;;;;;;5045711;28;20569;-67
2023/10/23 10:37:15;;;;;;;2.45;2.25;;;;;;;;;;5044829;28;20055;-69
2023/10/23 10:40:09;;;;;;;1.45;1.45;;;;;;;;;;5057947;28;20405;-69
2023/10/23 10:42:41;;;;;;;1.60;1.50;;;;;;;;;;5043963;28;20052;-69
2023/10/23 10:45:14;;;;;;;1.83;1.70;;;;;;;;;;5042375;28;20041;-69
2023/10/23 10:47:44;;;;;;;1.63;1.55;;;;;;;;;;5046667;28;20111;-69
2023/10/23 10:50:14;;;;;;;1.77;1.67;;;;;;;;;;5045519;28;20508;-67
2023/10/23 10:52:44;;;;;;;2.90;1.85;;;;;;;;;;5043522;28;20448;-68
2023/10/23 10:55:14;;;;;;;2.72;2.00;;;;;;;;;;5043305;28;20091;-67
2023/10/23 10:57:43;;;;;;;2.00;1.90;;;;;;;;;;5043662;28;20049;-66
2023/10/23 11:00:12;;;;;;;1.98;1.88;;;;;;;;;;5043953;28;20140;-66
2023/10/23 11:02:41;;;;;;;1.73;1.73;;;;;;;;;;5046357;28;20407;-66
2023/10/23 11:05:10;;;;;;;4.85;1.70;;;;;;;;;;5042031;28;20095;-67
2023/10/23 11:07:38;;;;;;;1.52;1.52;;;;;;;;;;5043931;28;20138;-66
2023/10/23 11:10:08;;;;;;;1.85;1.75;;;;;;;;;;5041961;28;20077;-66
2023/10/23 11:12:38;;;;;;;1.73;1.63;;;;;;;;;;5043021;28;20048;-68
2023/10/23 11:15:06;;;;;;;1.40;1.40;;;;;;;;;;5040408;28;20076;-70
2023/10/23 11:17:35;;;;;;;1.50;1.50;;;;;;;;;;5044109;28;20453;-68
2023/10/23 11:20:06;;;;;;;1.70;1.60;;;;;;;;;;5045764;28;20139;-67
2023/10/23 11:22:36;;;;;;;1.80;1.70;;;;;;;;;;5044109;28;20502;-68
2023/10/23 11:25:06;;;;;;;1.80;1.70;;;;;;;;;;5044052;28;20041;-68
2023/10/23 11:27:35;;;;;;;1.60;1.60;;;;;;;;;;5042380;28;20550;-70
2023/10/23 11:30:05;;;;;;;1.38;1.38;;;;;;;;;;5041883;28;20458;-68
2023/10/23 11:32:34;;;;;;;1.60;1.50;;;;;;;;;;5038561;28;20053;-69
2023/10/23 11:35:03;;;;;;;1.50;1.50;;;;;;;;;;5043622;28;20171;-69
2023/10/23 11:37:38;;;;;;;1.70;1.60;;;;;;;;;;5043551;28;20065;-70
2023/10/23 11:40:07;;;;;;;1.63;1.52;;;;;;;;;;5044657;28;20044;-69
2023/10/23 11:42:47;;;;;;;1.70;1.60;;;;;;;;;;5044987;28;20553;-70
2023/10/23 11:45:18;;;;;;;1.40;1.40;;;;;;;;;;5042384;28;20099;-70
2023/10/23 11:47:46;;;;;;;1.50;1.40;;;;;;;;;;5041891;28;20064;-70
2023/10/23 11:50:15;;;;;;;1.30;1.30;;;;;;;;;;5041393;28;20045;-69
2023/10/23 11:52:45;;;;;;;1.48;1.45;;;;;;;;;;5041047;28;20049;-69
2023/10/23 11:55:15;;;;;;;1.48;1.40;;;;;;;;;;5042644;28;20045;-70
2023/10/23 11:57:46;;;;;;;1.30;1.30;;;;;;;;;;5042942;28;20045;-73
2023/10/23 12:00:15;;;;;;;1.60;1.50;;;;;;;;;;5042105;28;20048;-72
2023/10/23 12:02:46;;;;;;;2.45;1.52;;;;;;;;;;5041965;28;20049;-71
2023/10/23 12:05:16;;;;;;;1.80;1.67;;;;;;;;;;5041633;28;20045;-70
2023/10/23 12:07:46;;;;;;;1.50;1.40;;;;;;;;;;5041413;28;20057;-70
2023/10/23 12:10:16;;;;;;;1.30;1.30;;;;;;;;;;5034134;28;20469;-70
2023/10/23 12:12:45;;;;;;;1.80;1.70;;;;;;;;;;5043607;28;20106;-68
2023/10/23 12:15:16;;;;;;;1.70;1.60;;;;;;;;;;5042920;28;20041;-70
2023/10/23 12:17:46;;;;;;;1.70;1.60;;;;;;;;;;5041100;28;20099;-70
2023/10/23 12:20:16;;;;;;;1.70;1.60;;;;;;;;;;5044469;28;20484;-70
2023/10/23 12:22:45;;;;;;;1.55;1.48;;;;;;;;;;5041586;28;20142;-70
2023/10/23 12:25:16;;;;;;;1.40;1.35;;;;;;;;;;5042317;28;20044;-70
2023/10/23 12:27:44;;;;;;;1.65;1.55;;;;;;;;;;5041793;28;20057;-70
2023/10/23 12:30:14;;;;;;;1.90;1.80;;;;;;;;;;5041040;28;20049;-70
2023/10/23 12:32:52;;;;;;;2.00;1.63;;;;;;;;;;5042493;28;20084;-70
2023/10/23 12:35:41;;;;;;;2.00;1.50;;;;;;;;;;5038582;28;20047;-72
2023/10/23 12:38:10;;;;;;;1.75;1.67;;;;;;;;;;5042943;28;20041;-71
2023/10/23 12:40:41;;;;;;;1.40;1.40;;;;;;;;;;5042730;28;20052;-72
2023/10/23 12:43:10;;;;;;;1.40;1.40;;;;;;;;;;5037677;28;20364;-72
2023/10/23 12:45:39;;;;;;;1.60;1.50;;;;;;;;;;5043588;28;20045;-72
2023/10/23 12:48:10;;;;;;;1.98;1.88;;;;;;;;;;5044319;28;20064;-72
2023/10/23 12:50:39;;;;;;;1.50;1.50;;;;;;;;;;5042551;28;20207;-71
2023/10/23 12:53:07;;;;;;;1.90;1.80;;;;;;;;;;5042361;28;20405;-71
2023/10/23 12:55:36;;;;;;;1.80;1.70;;;;;;;;;;5041043;28;20045;-71
2023/10/23 12:58:04;;;;;;;1.55;1.55;;;;;;;;;;5041194;28;20049;-72
2023/10/23 13:00:33;;;;;;;1.60;1.60;;;;;;;;;;5041043;28;20049;-73
2023/10/23 13:03:01;;;;;;;1.92;1.83;;;;;;;;;;5040261;28;20110;-71
2023/10/23 13:05:32;;;;;;;2.20;2.10;;;;;;;;;;5044210;28;20044;-71
2023/10/23 13:08:00;;;;;;;2.30;2.20;;;;;;;;;;5038923;28;20158;-72
2023/10/23 13:10:28;;;;;;;2.65;2.45;;;;;;;;;;5042061;28;20057;-71
2023/10/23 13:12:57;;;;;;;2.72;2.63;;;;;;;;;;5036439;28;20064;-72
2023/10/23 13:15:26;;;;;;;2.75;2.55;;;;;;;;;;5041310;28;20045;-72
2023/10/23 13:17:55;;;;;;;2.65;2.50;;;;;;;;;;5040311;28;20120;-71
2023/10/23 13:20:24;;;;;;;2.42;2.33;;;;;;;;;;5040850;28;20088;-72
2023/10/23 13:23:15;;;;;;;2.60;2.50;;;;;;;;;;5039534;28;20057;-71
2023/10/23 13:25:43;;;;;;;2.70;2.60;;;;;;;;;;5040837;28;20098;-73
2023/10/23 13:28:25;;;;;;;2.60;2.50;;;;;;;;;;5041332;28;20127;-71
2023/10/23 13:30:53;;;;;;;2.60;2.50;;;;;;;;;;5042259;28;20374;-72
2023/10/23 13:33:22;;;;;;;2.60;2.50;;;;;;;;;;5043339;28;20406;-72
2023/10/23 13:35:50;;;;;;;2.40;2.30;;;;;;;;;;5042659;28;20056;-71
2023/10/23 13:38:20;;;;;;;2.38;2.28;;;;;;;;;;5044826;28;20099;-72
2023/10/23 13:40:49;;;;;;;2.30;2.20;;;;;;;;;;5044210;28;20414;-71
2023/10/23 13:43:17;;;;;;;2.08;1.98;;;;;;;;;;5045816;28;20461;-72
2023/10/23 13:45:46;;;;;;;2.42;2.17;;;;;;;;;;5043707;28;20052;-75
2023/10/23 13:48:14;;;;;;;2.25;2.15;;;;;;;;;;5043682;28;20103;-72
2023/10/23 13:50:48;;;;;;;3.25;2.10;;;;;;;;;;5041744;28;20132;-70
2023/10/23 13:53:18;;;;;;;2.25;2.15;;;;;;;;;;5042831;28;20520;-72
2023/10/23 13:55:48;;;;;;;2.10;2.00;;;;;;;;;;5042387;28;20140;-69
2023/10/23 13:58:18;;;;;;;3.42;2.33;;;;;;;;;;5043420;28;20551;-72
2023/10/23 14:00:48;;;;;;;2.22;2.13;;;;;;;;;;5040219;28;20466;-72
2023/10/23 14:03:16;;;;;;;2.20;2.10;;;;;;;;;;5044413;28;20047;-71
2023/10/23 14:05:45;;;;;;;2.70;2.50;;;;;;;;;;5043781;28;20469;-70
2023/10/23 14:08:13;;;;;;;2.63;2.42;;;;;;;;;;5040511;28;20048;-72
2023/10/23 14:10:42;;;;;;;2.55;2.45;;;;;;;;;;5040195;28;20067;-71
2023/10/23 14:13:11;;;;;;;2.47;2.35;;;;;;;;;;5041534;28;20052;-72
2023/10/23 14:15:40;;;;;;;2.75;2.55;;;;;;;;;;5039026;28;20390;-72
2023/10/23 14:18:09;;;;;;;2.55;2.35;;;;;;;;;;5041509;28;20045;-69
2023/10/23 14:20:38;;;;;;;2.80;2.60;;;;;;;;;;5044155;28;20045;-70
2023/10/23 14:23:06;;;;;;;3.45;2.38;;;;;;;;;;5042633;28;20049;-71
2023/10/23 14:25:35;;;;;;;3.55;2.42;;;;;;;;;;5042168;28;20055;-72
2023/10/23 14:28:03;;;;;;;2.95;2.75;;;;;;;;;;5038616;28;20065;-72
2023/10/23 14:30:33;;;;;;;3.08;2.88;;;;;;;;;;5042178;28;20053;-72
2023/10/23 14:33:02;;;;;;;2.17;2.08;;;;;;;;;;5043088;28;20052;-72
2023/10/23 14:35:32;;;;;;;2.42;2.33;;;;;;;;;;5041318;28;20495;-70
2023/10/23 14:38:00;;;;;;;2.17;2.08;;;;;;;;;;5042047;28;20061;-72
2023/10/23 14:40:29;;;;;;;4.30;2.10;;;;;;;;;;5043991;28;20494;-72
2023/10/23 14:42:58;;;;;;;2.05;1.95;;;;;;;;;;5038590;28;20520;-72
2023/10/23 14:45:26;;;;;;;2.55;2.38;;;;;;;;;;5045858;28;20406;-72
2023/10/23 14:47:56;;;;;;;3.50;3.25;;;;;;;;;;5041976;28;20045;-70
2023/10/23 14:50:24;;;;;;;3.10;2.58;;;;;;;;;;5036076;28;20144;-72
2023/10/23 14:52:53;;;;;;;3.00;2.70;;;;;;;;;;5040721;28;20040;-72
2023/10/23 14:55:21;;;;;;;2.72;2.53;;;;;;;;;;5044229;28;20048;-72
2023/10/23 14:57:50;;;;;;;3.22;2.95;;;;;;;;;;5044800;28;20348;-72